Time;durP1;ratioP1;P1;durP2;ratioP2;P2;SDS_P1;SDS_P2;PMS_P1;PMS_P2;Temp;Humidity;BMP_temperature;BMP_pressure;BME280_temperature;BME280_humidity;BME280_pressure;Samples;Min_cycle;Max_cycle;Signal;HPM_P1;HPM_P2
2022/05/30 00:02:15;;;;;;;10.05;9.25;;;;;;;20.71;50.49;99614.31;5088945;28;20076;-72
2022/05/30 00:04:42;;;;;;;9.13;8.50;;;;;;;20.77;50.50;99629.84;5078411;28;20072;-70
2022/05/30 00:07:09;;;;;;;9.73;8.85;;;;;;;20.68;50.66;99612.22;5086800;28;20462;-70
2022/05/30 00:09:36;;;;;;;9.32;8.40;;;;;;;20.86;50.42;99633.31;5096508;28;20471;-70
2022/05/30 00:12:03;;;;;;;9.77;8.88;;;;;;;20.48;50.46;99558.28;5092766;28;20076;-71
2022/05/30 00:14:30;;;;;;;9.57;8.70;;;;;;;20.78;50.39;99620.13;5095174;28;20514;-71
2022/05/30 00:16:57;;;;;;;9.85;8.95;;;;;;;20.73;50.34;99609.09;5076360;28;20225;-71
2022/05/30 00:19:25;;;;;;;11.15;9.05;;;;;;;20.79;50.70;99614.09;5074433;28;20048;-71
2022/05/30 00:21:55;;;;;;;9.60;8.80;;;;;;;20.93;50.85;99633.44;5077084;28;20083;-71
2022/05/30 00:24:22;;;;;;;10.77;9.55;;;;;;;20.79;50.74;99613.28;5094375;28;20091;-71
2022/05/30 00:26:49;;;;;;;9.73;8.70;;;;;;;20.75;50.87;99615.19;5090202;28;20562;-71
2022/05/30 00:29:16;;;;;;;10.02;8.82;;;;;;;20.79;50.96;99622.63;5091433;28;20451;-70
2022/05/30 00:31:43;;;;;;;8.75;7.95;;;;;;;20.50;51.80;99598.47;5084119;28;20131;-71
2022/05/30 00:34:10;;;;;;;9.68;8.98;;;;;;;20.52;51.79;99601.75;5095598;28;20048;-71
2022/05/30 00:36:38;;;;;;;12.23;9.20;;;;;;;20.72;51.69;99624.50;5080379;28;20132;-70
2022/05/30 00:39:05;;;;;;;10.88;9.68;;;;;;;20.68;51.66;99615.06;5075592;28;20487;-70
2022/05/30 00:41:32;;;;;;;10.18;9.23;;;;;;;20.74;52.21;99617.22;5087871;28;20119;-69
2022/05/30 00:43:59;;;;;;;10.93;9.15;;;;;;;20.67;52.49;99602.88;5095338;28;20131;-70
2022/05/30 00:46:26;;;;;;;10.77;9.52;;;;;;;20.66;52.65;99604.09;5084402;28;20080;-67
2022/05/30 00:49:02;;;;;;;12.52;9.98;;;;;;;20.57;53.45;99594.97;5094306;28;20062;-69
2022/05/30 00:51:32;;;;;;;12.73;11.52;;;;;;;20.49;53.84;99602.47;5095154;28;20127;-69
2022/05/30 00:54:02;;;;;;;17.23;9.63;;;;;;;20.39;54.21;99596.56;5076538;28;20440;-69
2022/05/30 00:56:33;;;;;;;12.38;9.80;;;;;;;20.40;54.31;99599.00;5088017;28;20139;-70
2022/05/30 00:59:01;;;;;;;12.23;9.95;;;;;;;20.42;54.27;99590.16;5094548;28;20126;-70
2022/05/30 01:01:30;;;;;;;14.07;9.55;;;;;;;20.48;54.06;99600.84;5079702;28;20100;-70
2022/05/30 01:06:48;;;;;;;11.30;10.18;;;;;;;20.40;54.78;99587.66;5091192;28;20127;-72
2022/05/30 01:09:19;;;;;;;9.93;9.10;;;;;;;20.26;54.74;99576.00;5075178;28;20127;-72
2022/05/30 01:11:52;;;;;;;11.65;10.00;;;;;;;20.34;54.96;99586.31;5078725;28;20110;-72
2022/05/30 01:14:21;;;;;;;12.27;10.90;;;;;;;20.27;54.82;99586.13;5088302;28;20130;-72
2022/05/30 01:16:48;;;;;;;10.25;8.95;;;;;;;20.17;55.66;99566.88;5091123;28;20088;-71
2022/05/30 01:20:05;;;;;;;14.27;10.10;;;;;;;20.24;55.73;99584.03;5092904;28;20513;-71
2022/05/30 01:23:14;;;;;;;12.07;9.25;;;;;;;20.25;55.67;99577.19;5077325;28;20127;-71
2022/05/30 01:25:52;;;;;;;10.30;9.52;;;;;;;20.26;55.44;99564.66;5067774;28;20072;-71
2022/05/30 01:28:22;;;;;;;9.75;9.00;;;;;;;20.21;55.84;99579.13;5094334;28;20135;-71
2022/05/30 01:30:49;;;;;;;15.07;9.90;;;;;;;20.16;55.89;99573.72;5083854;28;20087;-72
2022/05/30 01:33:17;;;;;;;11.00;10.05;;;;;;;20.15;56.15;99572.91;5074557;28;20094;-72
2022/05/30 01:35:44;;;;;;;15.10;10.70;;;;;;;20.17;56.13;99564.88;5075278;28;20091;-70
2022/05/30 01:38:10;;;;;;;10.65;9.75;;;;;;;20.03;56.68;99562.53;5085273;28;20080;-71
2022/05/30 01:40:37;;;;;;;12.98;10.02;;;;;;;20.11;56.66;99555.84;5094582;28;20512;-71
2022/05/30 01:43:05;;;;;;;11.43;9.07;;;;;;;20.10;56.69;99550.50;5088115;28;20127;-71
2022/05/30 01:45:32;;;;;;;11.20;10.20;;;;;;;19.88;56.64;99532.19;5092977;28;20051;-70
2022/05/30 01:47:58;;;;;;;10.60;9.80;;;;;;;20.16;56.64;99543.38;5082134;28;20128;-71
2022/05/30 01:50:28;;;;;;;11.15;10.02;;;;;;;20.05;56.75;99520.47;5074393;28;20478;-71
2022/05/30 01:52:55;;;;;;;10.95;9.90;;;;;;;19.88;56.92;99509.53;5085724;28;20071;-71
2022/05/30 01:55:22;;;;;;;11.02;9.90;;;;;;;20.23;56.42;99548.38;5080583;28;20076;-71
2022/05/30 01:57:49;;;;;;;11.52;9.18;;;;;;;19.96;57.07;99528.34;5063174;28;20076;-71
2022/05/30 02:00:21;;;;;;;10.68;9.52;;;;;;;20.02;58.10;99554.38;5074584;28;20048;-71
2022/05/30 02:02:49;;;;;;;11.35;9.60;;;;;;;20.02;57.59;99546.69;5085176;28;20495;-72
2022/05/30 02:05:16;;;;;;;12.57;9.68;;;;;;;19.95;57.43;99532.38;5079382;28;20056;-71
2022/05/30 02:07:43;;;;;;;12.27;9.80;;;;;;;20.01;57.11;99536.56;5078977;28;20127;-72
2022/05/30 02:10:10;;;;;;;9.75;9.05;;;;;;;20.08;57.36;99559.41;5093496;28;20126;-71
2022/05/30 02:12:37;;;;;;;18.05;10.43;;;;;;;19.99;57.24;99523.94;5074424;28;20076;-72
2022/05/30 02:15:04;;;;;;;10.18;9.27;;;;;;;20.02;57.10;99520.38;5091299;28;20134;-72
2022/05/30 02:17:33;;;;;;;13.07;9.77;;;;;;;20.13;57.29;99544.09;5076987;28;20139;-72
2022/05/30 02:20:00;;;;;;;10.48;9.63;;;;;;;19.91;57.49;99520.13;5073313;28;20135;-72
2022/05/30 02:22:30;;;;;;;10.57;9.65;;;;;;;19.92;57.91;99535.13;5077295;28;20040;-73
2022/05/30 02:24:57;;;;;;;10.82;9.73;;;;;;;20.05;57.22;99528.13;5080862;28;20059;-74
2022/05/30 02:27:24;;;;;;;11.63;10.50;;;;;;;19.99;57.42;99533.25;5073665;28;20088;-73
2022/05/30 02:29:54;;;;;;;17.15;12.10;;;;;;;20.12;57.25;99543.28;5093550;28;20162;-73
2022/05/30 02:32:21;;;;;;;14.57;10.50;;;;;;;20.05;57.11;99545.16;5089609;28;20134;-72
2022/05/30 02:37:33;;;;;;;10.27;9.43;;;;;;;20.07;57.29;99548.44;5086166;28;20076;-73
2022/05/30 02:40:01;;;;;;;10.68;9.52;;;;;;;19.99;57.43;99533.25;5084915;28;20067;-73
2022/05/30 02:42:28;;;;;;;14.40;9.30;;;;;;;20.01;57.20;99530.91;5089773;28;20075;-73
2022/05/30 02:44:55;;;;;;;10.63;9.40;;;;;;;20.05;57.53;99543.13;5089484;28;20044;-76
2022/05/30 02:47:22;;;;;;;9.57;8.60;;;;;;;20.05;57.38;99536.66;5088151;28;20059;-75
2022/05/30 02:49:48;;;;;;;12.25;9.65;;;;;;;20.10;57.04;99557.03;5074160;28;20135;-75
2022/05/30 02:52:15;;;;;;;9.23;8.32;;;;;;;20.05;56.84;99542.31;5075544;28;20410;-76
2022/05/30 02:54:42;;;;;;;12.13;10.00;;;;;;;19.95;56.80;99525.88;5092120;28;20087;-75
2022/05/30 02:57:09;;;;;;;13.05;9.73;;;;;;;20.18;56.70;99551.53;5072417;28;20060;-76
2022/05/30 02:59:36;;;;;;;9.88;8.98;;;;;;;20.06;56.55;99539.09;5073060;28;20234;-76
2022/05/30 03:02:03;;;;;;;14.23;9.88;;;;;;;20.08;56.89;99545.22;5080596;28;20178;-74
2022/05/30 03:04:30;;;;;;;10.13;9.18;;;;;;;20.03;56.84;99539.88;5085272;28;20140;-75
2022/05/30 03:06:57;;;;;;;10.23;9.25;;;;;;;20.12;56.71;99553.81;5077173;28;20087;-77
2022/05/30 03:09:24;;;;;;;10.38;9.35;;;;;;;20.16;56.34;99556.72;5092052;28;20501;-75
2022/05/30 03:11:51;;;;;;;10.65;9.60;;;;;;;20.10;56.68;99559.88;5087169;28;20069;-75
2022/05/30 03:14:18;;;;;;;13.05;9.88;;;;;;;20.08;56.64;99556.56;5087363;28;20557;-75
2022/05/30 03:16:45;;;;;;;12.52;9.48;;;;;;;20.01;56.88;99561.25;5086303;28;20052;-75
2022/05/30 03:19:12;;;;;;;11.23;10.23;;;;;;;20.06;56.89;99567.44;5076977;28;20144;-75
2022/05/30 03:21:39;;;;;;;12.82;10.23;;;;;;;19.87;56.97;99547.56;5071959;28;20136;-74
2022/05/30 03:24:07;;;;;;;11.05;10.05;;;;;;;19.95;57.17;99557.03;5073531;28;20450;-75
2022/05/30 03:26:34;;;;;;;12.98;9.25;;;;;;;19.93;57.08;99563.09;5074991;28;20089;-75
2022/05/30 03:29:01;;;;;;;15.82;10.63;;;;;;;19.95;57.21;99565.56;5088062;28;20161;-75
2022/05/30 03:31:28;;;;;;;11.75;9.85;;;;;;;19.98;56.96;99559.16;5080241;28;20048;-74
2022/05/30 03:33:55;;;;;;;11.73;10.25;;;;;;;20.03;56.85;99550.34;5090742;28;20040;-75
2022/05/30 03:36:26;;;;;;;14.88;9.02;;;;;;;20.13;56.58;99555.44;5089938;28;20123;-72
2022/05/30 03:38:54;;;;;;;11.85;10.73;;;;;;;19.99;57.29;99543.78;5080825;28;20052;-72
2022/05/30 03:41:21;;;;;;;10.90;9.82;;;;;;;20.08;57.23;99567.09;5087256;28;20131;-72
2022/05/30 03:43:48;;;;;;;9.93;8.93;;;;;;;20.16;56.98;99570.91;5088155;28;20125;-71
2022/05/30 03:46:16;;;;;;;20.33;9.52;;;;;;;19.99;56.55;99532.44;5072790;28;20048;-75
2022/05/30 03:48:44;;;;;;;14.02;9.23;;;;;;;20.15;56.59;99555.09;5072766;28;20048;-76
2022/05/30 03:51:12;;;;;;;14.45;10.52;;;;;;;20.30;56.57;99557.06;5072861;28;20076;-76
2022/05/30 03:53:40;;;;;;;9.55;8.65;;;;;;;20.18;56.72;99563.69;5082212;28;20113;-71
2022/05/30 03:56:07;;;;;;;13.63;9.10;;;;;;;20.03;56.87;99551.19;5086677;28;20466;-73
2022/05/30 03:58:34;;;;;;;10.27;8.93;;;;;;;20.11;56.96;99570.00;5091125;28;20075;-75
2022/05/30 04:01:05;;;;;;;9.95;9.00;;;;;;;20.12;56.89;99567.97;5086938;28;20070;-74
2022/05/30 04:03:32;;;;;;;10.70;9.25;;;;;;;19.96;56.98;99541.69;5072516;28;20045;-73
2022/05/30 04:05:59;;;;;;;11.60;9.05;;;;;;;20.27;56.49;99567.16;5070993;28;20156;-73
2022/05/30 04:08:26;;;;;;;9.93;8.93;;;;;;;20.11;56.50;99557.84;5077148;28;20076;-73
2022/05/30 04:10:54;;;;;;;16.10;10.35;;;;;;;20.06;56.54;99544.75;5083776;28;20451;-73
2022/05/30 04:13:22;;;;;;;12.88;9.68;;;;;;;20.31;56.34;99582.22;5091070;28;20581;-73
2022/05/30 04:15:49;;;;;;;10.90;9.80;;;;;;;20.31;56.27;99587.06;5087874;28;20080;-73
2022/05/30 04:18:16;;;;;;;10.95;10.07;;;;;;;20.06;56.84;99569.44;5073258;28;20123;-74
2022/05/30 04:20:46;;;;;;;14.65;9.70;;;;;;;20.12;56.99;99576.50;5079741;28;20083;-73
2022/05/30 04:23:14;;;;;;;11.18;10.07;;;;;;;20.09;57.14;99582.88;5083915;28;20045;-74
2022/05/30 04:25:41;;;;;;;13.80;9.65;;;;;;;19.81;57.74;99566.84;5071939;28;20052;-76
2022/05/30 04:28:08;;;;;;;13.63;10.00;;;;;;;19.76;58.02;99569.13;5085718;28;20048;-76
2022/05/30 04:30:36;;;;;;;14.98;10.23;;;;;;;19.91;57.69;99585.28;5076856;28;20807;-77
2022/05/30 04:33:03;;;;;;;14.23;12.68;;;;;;;19.77;57.86;99573.63;5084848;28;20048;-75
2022/05/30 04:35:30;;;;;;;21.15;12.43;;;;;;;20.01;57.36;99586.75;5092023;28;20157;-72
2022/05/30 04:37:57;;;;;;;10.23;9.43;;;;;;;19.85;57.91;99583.94;5085354;28;20451;-72
2022/05/30 04:40:23;;;;;;;14.75;10.13;;;;;;;19.77;57.67;99568.78;5086091;28;20135;-73
2022/05/30 04:42:50;;;;;;;17.92;10.27;;;;;;;19.63;58.09;99566.41;5074869;28;20079;-72
2022/05/30 04:45:17;;;;;;;10.68;9.57;;;;;;;19.70;58.28;99582.75;5076101;28;20085;-75
2022/05/30 04:47:44;;;;;;;12.80;10.48;;;;;;;19.80;58.21;99610.53;5083822;28;20052;-71
2022/05/30 04:50:16;;;;;;;16.20;10.35;;;;;;;19.82;57.90;99601.66;5078741;28;20139;-71
2022/05/30 04:52:44;;;;;;;11.50;10.60;;;;;;;19.88;57.72;99603.03;5084904;28;20084;-71
2022/05/30 04:55:13;;;;;;;16.38;10.32;;;;;;;19.88;58.00;99597.38;5083861;28;20048;-70
2022/05/30 04:57:45;;;;;;;14.68;9.65;;;;;;;19.72;57.83;99580.34;5085900;28;20131;-69
2022/05/30 05:00:13;;;;;;;11.30;9.73;;;;;;;19.95;57.59;99606.03;5090509;28;20076;-71
2022/05/30 05:02:41;;;;;;;10.90;10.00;;;;;;;19.91;57.78;99616.47;5082398;28;20194;-70
2022/05/30 05:05:09;;;;;;;12.60;9.93;;;;;;;19.50;58.04;99544.97;5093574;28;20134;-72
2022/05/30 05:07:53;;;;;;;10.40;9.20;;;;;;;19.97;57.50;99605.69;5091588;28;20490;-74
2022/05/30 05:10:52;;;;;;;11.02;9.77;;;;;;;19.95;57.91;99617.38;5087486;28;20313;-72
2022/05/30 05:13:19;;;;;;;16.15;9.85;;;;;;;20.03;57.89;99618.38;5080096;28;20554;-74
2022/05/30 05:15:46;;;;;;;17.85;10.20;;;;;;;20.00;57.93;99619.94;5091663;28;20052;-71
2022/05/30 05:18:14;;;;;;;10.50;9.48;;;;;;;20.06;57.85;99621.28;5092481;28;20131;-73
2022/05/30 05:20:42;;;;;;;9.65;8.82;;;;;;;20.02;57.83;99626.03;5089046;28;20072;-71
2022/05/30 05:23:11;;;;;;;10.52;9.48;;;;;;;20.07;57.82;99637.13;5079598;28;20058;-73
2022/05/30 05:25:40;;;;;;;10.85;9.88;;;;;;;20.09;57.77;99620.56;5091059;28;20066;-73
2022/05/30 05:28:08;;;;;;;13.48;10.07;;;;;;;20.13;57.90;99621.47;5074342;28;20843;-71
2022/05/30 05:30:35;;;;;;;10.25;9.32;;;;;;;20.17;57.71;99620.72;5080040;28;20139;-71
2022/05/30 05:33:02;;;;;;;11.27;8.98;;;;;;;20.17;57.81;99624.41;5077283;28;20449;-74
2022/05/30 05:35:29;;;;;;;11.85;8.80;;;;;;;20.12;57.87;99619.81;5076950;28;20481;-70
2022/05/30 05:37:56;;;;;;;11.20;9.15;;;;;;;19.85;58.50;99612.25;5078290;28;20415;-70
2022/05/30 05:40:24;;;;;;;14.05;10.10;;;;;;;19.93;58.25;99605.59;5085898;28;20135;-70
2022/05/30 05:42:50;;;;;;;14.45;8.95;;;;;;;20.01;58.50;99629.25;5077294;28;20668;-70
2022/05/30 05:45:18;;;;;;;17.08;9.77;;;;;;;20.10;58.33;99641.22;5078590;28;20055;-72
2022/05/30 05:47:45;;;;;;;10.23;9.27;;;;;;;20.03;58.34;99635.38;5079616;28;20513;-71
2022/05/30 05:50:12;;;;;;;13.45;8.93;;;;;;;19.84;59.17;99634.09;5081390;28;20291;-70
2022/05/30 05:52:38;;;;;;;19.48;10.95;;;;;;;19.63;59.70;99614.53;5082552;28;20635;-70
2022/05/30 05:55:06;;;;;;;12.35;9.68;;;;;;;19.88;59.11;99642.69;5081650;28;20051;-70
2022/05/30 05:57:33;;;;;;;13.65;9.65;;;;;;;19.55;59.49;99587.19;5086674;28;20091;-71
2022/05/30 06:00:00;;;;;;;11.05;9.93;;;;;;;19.92;59.17;99637.94;5095758;28;20105;-70
2022/05/30 06:02:30;;;;;;;13.32;9.90;;;;;;;19.94;59.15;99641.25;5088292;28;20584;-69
2022/05/30 06:04:57;;;;;;;12.90;11.88;;;;;;;19.88;59.04;99625.69;5078526;28;20089;-71
2022/05/30 06:07:24;;;;;;;10.55;9.60;;;;;;;20.09;58.72;99650.91;5101013;28;20130;-70
2022/05/30 06:09:51;;;;;;;11.75;9.15;;;;;;;19.96;59.20;99638.84;5086588;28;20169;-71
2022/05/30 06:12:18;;;;;;;11.25;9.45;;;;;;;20.17;58.87;99651.91;5079907;28;20051;-73
2022/05/30 06:14:45;;;;;;;12.75;10.30;;;;;;;20.18;58.81;99653.56;5089220;28;20044;-65
2022/05/30 06:17:12;;;;;;;10.18;9.05;;;;;;;20.10;59.11;99647.72;5083312;28;20131;-66
2022/05/30 06:19:39;;;;;;;11.52;10.57;;;;;;;19.94;59.37;99632.75;5079363;28;20045;-64
2022/05/30 06:22:06;;;;;;;10.20;8.95;;;;;;;20.02;59.46;99651.56;5079038;28;20486;-65
2022/05/30 06:24:33;;;;;;;11.18;9.13;;;;;;;19.95;59.51;99637.22;5081701;28;20124;-69
2022/05/30 06:27:02;;;;;;;12.10;10.95;;;;;;;19.98;59.64;99647.81;5073803;28;20520;-65
2022/05/30 06:29:29;;;;;;;10.98;9.98;;;;;;;19.80;59.92;99627.53;5079086;28;20087;-66
2022/05/30 06:31:56;;;;;;;10.30;9.43;;;;;;;19.86;59.08;99613.91;5076706;28;20169;-65
2022/05/30 06:34:23;;;;;;;10.98;8.85;;;;;;;20.16;59.17;99651.09;5076520;28;20075;-65
2022/05/30 06:36:50;;;;;;;10.18;9.10;;;;;;;20.09;59.06;99634.72;5079537;28;20570;-65
2022/05/30 06:39:17;;;;;;;9.25;8.55;;;;;;;20.11;59.06;99640.84;5085796;28;20131;-65
2022/05/30 06:41:44;;;;;;;9.63;8.77;;;;;;;20.19;59.07;99638.19;5080754;28;20134;-65
2022/05/30 06:44:11;;;;;;;11.25;10.07;;;;;;;20.26;58.83;99644.03;5076250;28;20136;-65
2022/05/30 06:46:38;;;;;;;12.55;11.55;;;;;;;20.06;59.38;99624.13;5070018;28;20147;-65
2022/05/30 06:49:07;;;;;;;11.38;10.52;;;;;;;20.10;59.15;99647.72;5072581;28;20534;-65
2022/05/30 06:51:35;;;;;;;11.52;10.48;;;;;;;20.09;59.15;99646.06;5077571;28;20470;-65
2022/05/30 06:54:04;;;;;;;14.57;10.70;;;;;;;20.06;59.34;99649.63;5076657;28;20332;-65
2022/05/30 06:56:39;;;;;;;10.25;9.25;;;;;;;19.93;59.67;99642.44;5079152;28;20400;-65
2022/05/30 06:59:08;;;;;;;13.68;11.65;;;;;;;19.88;59.52;99648.38;5079266;28;20044;-65
2022/05/30 07:01:35;;;;;;;11.30;10.20;;;;;;;20.09;59.23;99665.09;5081285;28;20110;-65
2022/05/30 07:04:02;;;;;;;9.25;3.67;;;;;;;19.97;59.76;99657.50;5080159;28;20461;-67
2022/05/30 07:06:32;;;;;;;6.70;2.83;;;;;;;19.91;59.54;99661.81;5073138;28;20131;-67
2022/05/30 07:09:00;;;;;;;;;;;;;;;19.92;59.39;99673.97;5080664;28;20391;-66
2022/05/30 07:11:27;;;;;;;9.15;3.22;;;;;;;19.93;59.61;99670.78;5072934;28;19983;-66
2022/05/30 07:13:53;;;;;;;6.72;3.70;;;;;;;19.94;59.55;99680.91;5072899;28;20103;-67
2022/05/30 07:16:23;;;;;;;11.57;5.18;;;;;;;19.90;59.55;99682.84;5084534;28;20575;-66
2022/05/30 07:18:52;;;;;;;6.75;3.13;;;;;;;19.60;60.62;99680.38;5081856;28;20049;-66
2022/05/30 07:21:20;;;;;;;5.20;3.10;;;;;;;19.21;62.08;99684.09;5072925;28;20049;-67
2022/05/30 07:23:49;;;;;;;9.38;4.38;;;;;;;19.06;62.41;99678.03;5083169;28;20122;-66
2022/05/30 07:26:19;;;;;;;7.97;3.85;;;;;;;18.98;62.33;99687.50;5075758;28;20139;-66
2022/05/30 07:28:48;;;;;;;13.93;4.80;;;;;;;19.00;62.64;99696.44;5076722;28;20052;-67
2022/05/30 07:31:18;;;;;;;10.75;5.00;;;;;;;18.99;62.65;99697.63;5076358;28;20091;-68
2022/05/30 07:33:48;;;;;;;8.05;4.35;;;;;;;18.91;62.95;99690.09;5075228;28;20442;-67
2022/05/30 07:36:21;;;;;;;22.48;4.25;;;;;;;19.05;62.83;99690.53;5070775;28;20476;-67
2022/05/30 07:38:49;;;;;;;11.13;4.18;;;;;;;19.11;63.39;99700.44;5079389;28;20594;-66
2022/05/30 07:41:17;;;;;;;10.90;4.45;;;;;;;18.98;63.97;99686.69;5092074;28;20122;-66
2022/05/30 07:43:44;;;;;;;15.10;4.50;;;;;;;19.13;64.32;99692.38;5099208;28;20404;-66
2022/05/30 07:46:14;;;;;;;10.27;4.78;;;;;;;19.33;64.25;99690.53;5079694;28;20067;-66
2022/05/30 07:48:43;;;;;;;12.23;4.38;;;;;;;19.57;64.11;99697.28;5090067;28;20055;-66
2022/05/30 07:51:11;;;;;;;7.75;3.67;;;;;;;19.61;63.80;99699.00;5082623;28;20080;-67
2022/05/30 07:53:39;;;;;;;10.43;3.80;;;;;;;19.62;63.89;99709.19;5083424;28;20043;-67
2022/05/30 07:56:13;;;;;;;9.68;3.63;;;;;;;19.67;63.85;99719.44;5074118;28;20511;-67
2022/05/30 07:58:40;;;;;;;8.00;3.10;;;;;;;19.78;63.24;99722.56;5090188;28;20512;-66
2022/05/30 08:01:11;;;;;;;9.52;2.97;;;;;;;19.83;63.61;99722.31;5082799;28;20491;-67
2022/05/30 08:03:39;;;;;;;6.05;3.55;;;;;;;19.95;63.24;99747.72;5080752;28;20044;-67
2022/05/30 08:06:20;;;;;;;8.70;3.00;;;;;;;19.96;63.16;99743.69;5069145;28;20083;-67
2022/05/30 08:08:48;;;;;;;9.85;3.95;;;;;;;19.71;63.52;99725.19;5084942;28;20448;-67
2022/05/30 08:11:15;;;;;;;11.10;2.97;;;;;;;19.86;63.01;99728.06;5086994;28;20139;-66
2022/05/30 08:13:45;;;;;;;8.32;2.85;;;;;;;19.98;63.09;99724.31;5085184;28;20079;-66
2022/05/30 08:16:22;;;;;;;10.05;3.35;;;;;;;20.00;63.18;99758.81;5093335;28;20044;-68
2022/05/30 08:19:09;;;;;;;6.35;2.38;;;;;;;20.00;63.01;99738.97;5085430;28;20052;-66
2022/05/30 08:22:08;;;;;;;7.55;3.63;;;;;;;20.03;62.97;99735.41;5082552;28;20056;-67
2022/05/30 08:24:44;;;;;;;5.22;2.17;;;;;;;20.08;62.87;99728.63;5085891;28;20128;-66
2022/05/30 08:27:11;;;;;;;9.55;2.50;;;;;;;20.18;62.59;99752.78;5086728;28;20052;-67
2022/05/30 08:29:42;;;;;;;3.95;1.60;;;;;;;20.15;62.23;99751.50;5084945;28;20079;-67
2022/05/30 08:32:10;;;;;;;3.30;2.10;;;;;;;20.26;61.86;99760.28;5106128;28;20566;-67
2022/05/30 08:34:39;;;;;;;6.05;1.73;;;;;;;20.30;61.62;99755.53;5088235;28;20088;-67
2022/05/30 08:37:07;;;;;;;4.35;1.50;;;;;;;20.27;61.56;99742.06;5082645;28;20051;-67
2022/05/30 08:42:29;;;;;;;10.55;2.03;;;;;;;20.42;61.37;99760.28;5092498;28;20079;-67
2022/05/30 08:44:58;;;;;;;8.70;2.08;;;;;;;20.41;61.37;99776.50;5095997;28;20524;-66
2022/05/30 08:47:27;;;;;;;7.20;2.05;;;;;;;20.40;61.27;99769.16;5090455;28;20135;-67
2022/05/30 08:50:07;;;;;;;7.43;2.17;;;;;;;20.40;61.28;99762.66;5082963;28;20124;-66
2022/05/30 08:52:36;;;;;;;;;;;;;;;20.54;61.71;99769.53;5086303;28;20080;-67
2022/05/30 08:55:33;;;;;;;2.63;1.48;;;;;;;20.59;61.13;99783.47;5087205;28;19959;-66
2022/05/30 08:58:19;;;;;;;11.25;1.55;;;;;;;20.56;60.91;99775.69;5073355;28;20395;-67
2022/05/30 09:00:53;;;;;;;6.40;1.85;;;;;;;20.65;60.17;99783.16;5085574;28;20465;-66
2022/05/30 09:03:29;;;;;;;9.73;1.60;;;;;;;20.55;59.83;99782.56;5085389;28;20066;-67
2022/05/30 09:06:06;;;;;;;6.32;1.30;;;;;;;20.51;60.04;99775.13;5083599;28;20051;-66
2022/05/30 09:08:46;;;;;;;5.25;1.50;;;;;;;20.51;59.54;99773.13;5087220;28;20140;-66
2022/05/30 09:11:20;;;;;;;4.43;1.25;;;;;;;20.55;59.28;99773.22;5076541;28;20040;-67
2022/05/30 09:13:49;;;;;;;3.15;1.30;;;;;;;20.19;58.86;99731.75;5086695;28;20540;-65
2022/05/30 09:16:30;;;;;;;5.20;1.70;;;;;;;20.46;58.71;99779.03;5085006;28;20135;-68
2022/05/30 09:19:00;;;;;;;2.35;1.10;;;;;;;20.46;58.48;99784.72;5079882;28;20162;-67
2022/05/30 09:21:31;;;;;;;9.10;1.65;;;;;;;20.42;58.16;99780.16;5084699;28;20135;-67
2022/05/30 09:23:59;;;;;;;2.05;1.00;;;;;;;20.33;58.00;99792.47;5088215;28;20135;-67
2022/05/30 09:26:32;;;;;;;3.90;2.03;;;;;;;20.38;57.68;99794.22;5080000;28;20093;-66
2022/05/30 09:29:04;;;;;;;4.95;1.50;;;;;;;20.15;58.29;99788.34;5088780;28;20052;-66
2022/05/30 09:31:42;;;;;;;3.17;1.38;;;;;;;19.97;58.62;99806.88;5079857;28;20052;-66
2022/05/30 09:34:45;;;;;;;6.15;1.52;;;;;;;19.88;58.99;99809.88;5079082;28;20076;-66
2022/05/30 09:37:34;;;;;;;5.53;1.40;;;;;;;19.79;58.65;99803.53;5082848;28;20051;-66
2022/05/30 09:40:03;;;;;;;3.08;1.60;;;;;;;19.85;58.80;99785.09;5082470;28;20060;-66
2022/05/30 09:42:32;;;;;;;6.97;2.13;;;;;;;19.87;58.91;99794.06;5090382;28;20147;-67
2022/05/30 09:45:15;;;;;;;7.30;1.30;;;;;;;19.97;58.99;99801.22;5084199;28;20056;-66
2022/05/30 09:48:04;;;;;;;7.22;1.88;;;;;;;19.92;58.81;99807.94;5079086;28;20056;-66
2022/05/30 09:50:31;;;;;;;3.35;1.75;;;;;;;19.97;58.90;99813.38;5078899;28;20604;-66
2022/05/30 09:52:58;;;;;;;7.05;2.08;;;;;;;19.95;58.84;99814.91;5088797;28;20113;-66
2022/05/30 09:55:41;;;;;;;2.55;1.25;;;;;;;19.88;58.83;99805.03;5075750;28;20075;-66
2022/05/30 09:58:08;;;;;;;6.13;2.38;;;;;;;19.99;58.54;99810.16;5076182;28;20076;-67
2022/05/30 10:01:01;;;;;;;4.15;1.90;;;;;;;20.13;58.76;99816.22;5068894;28;20105;-66
2022/05/30 10:03:46;;;;;;;5.88;1.92;;;;;;;20.22;58.79;99827.41;5076134;28;20051;-66
2022/05/30 10:06:22;;;;;;;4.80;2.58;;;;;;;20.10;58.90;99814.97;5088478;28;20162;-66
2022/05/30 10:08:51;;;;;;;9.13;2.53;;;;;;;20.22;58.75;99830.25;5079667;28;20101;-66
2022/05/30 10:11:32;;;;;;;7.85;2.53;;;;;;;20.22;58.83;99821.75;5077719;28;20039;-66
2022/05/30 10:14:00;;;;;;;7.93;2.42;;;;;;;20.33;58.92;99828.50;5081517;28;20048;-66
2022/05/30 10:16:31;;;;;;;9.48;2.97;;;;;;;20.43;58.73;99830.81;5085524;28;20127;-66
2022/05/30 10:19:03;;;;;;;7.13;2.53;;;;;;;20.34;58.78;99816.81;5081725;28;20172;-66
2022/05/30 10:28:43;;;;;;;7.00;1.98;;;;;;;20.39;58.59;99832.72;5081516;28;20087;-65
2022/05/30 10:31:28;;;;;;;4.93;1.95;;;;;;;20.39;58.46;99835.56;5075401;28;20079;-66
2022/05/30 10:34:12;;;;;;;6.18;2.30;;;;;;;20.29;58.27;99776.56;5077092;28;20040;-66
2022/05/30 10:36:51;;;;;;;5.32;1.92;;;;;;;20.83;58.20;99839.19;5078059;28;20501;-66
2022/05/30 10:39:45;;;;;;;8.57;2.35;;;;;;;20.78;57.99;99808.22;5078815;28;20052;-66
2022/05/30 10:42:24;;;;;;;11.65;2.38;;;;;;;21.05;57.78;99831.19;5075877;28;20146;-66
2022/05/30 10:45:08;;;;;;;8.70;2.90;;;;;;;20.89;57.67;99807.66;5086114;28;20123;-67
2022/05/30 10:47:48;;;;;;;4.60;1.73;;;;;;;21.11;57.30;99831.72;5076200;28;20183;-67
2022/05/30 10:50:42;;;;;;;8.13;2.60;;;;;;;20.98;57.40;99839.53;5081240;28;20052;-66
2022/05/30 10:53:22;;;;;;;6.00;2.28;;;;;;;20.87;57.29;99821.41;5073776;28;20436;-67
2022/05/30 10:55:53;;;;;;;7.80;2.08;;;;;;;21.00;56.91;99828.63;5077383;28;20136;-67
2022/05/30 10:58:30;;;;;;;6.97;1.90;;;;;;;21.19;56.52;99827.84;5074937;28;20483;-67
2022/05/30 11:01:09;;;;;;;9.23;2.17;;;;;;;21.26;56.15;99816.66;5079975;28;20126;-67
2022/05/30 11:03:52;;;;;;;5.20;1.70;;;;;;;21.32;56.13;99818.03;5092243;28;20048;-67
2022/05/30 11:06:23;;;;;;;6.65;2.15;;;;;;;21.43;55.34;99816.25;5087143;28;20387;-67
2022/05/30 11:09:03;;;;;;;4.68;1.67;;;;;;;21.36;55.22;99821.78;5081121;28;20576;-67
2022/05/30 11:11:43;;;;;;;5.50;1.95;;;;;;;21.42;54.79;99831.66;5085315;28;20534;-67
2022/05/30 11:14:21;;;;;;;4.82;1.58;;;;;;;21.49;54.13;99829.00;5085932;28;20083;-66
2022/05/30 11:16:54;;;;;;;6.25;1.77;;;;;;;21.69;54.23;99826.16;5071935;28;20138;-66
2022/05/30 11:19:30;;;;;;;6.00;1.77;;;;;;;21.72;53.67;99826.25;5073226;28;20052;-67
2022/05/30 11:22:23;;;;;;;9.63;2.25;;;;;;;21.80;53.50;99812.19;5077550;28;20136;-66
2022/05/30 11:24:52;;;;;;;3.08;1.58;;;;;;;22.03;53.02;99812.25;5073918;28;20190;-66
2022/05/30 11:27:37;;;;;;;4.20;2.13;;;;;;;22.03;52.80;99820.78;5079995;28;20091;-67
2022/05/30 11:30:38;;;;;;;5.90;2.00;;;;;;;22.14;52.44;99818.97;5078798;28;20116;-67
2022/05/30 11:33:39;;;;;;;8.13;2.05;;;;;;;22.35;51.75;99805.16;5106398;28;20082;-67
2022/05/30 11:36:28;;;;;;;5.90;2.28;;;;;;;22.81;51.61;99821.41;5113053;28;20494;-66
2022/05/30 11:38:57;;;;;;;7.28;1.65;;;;;;;23.00;50.78;99823.38;5112960;28;20126;-67
2022/05/30 11:41:44;;;;;;;3.55;1.98;;;;;;;22.97;50.46;99762.31;5100589;28;20478;-67
2022/05/30 11:44:35;;;;;;;2.05;1.30;;;;;;;23.51;50.01;99814.38;5089556;28;20203;-67
2022/05/30 11:47:12;;;;;;;4.85;2.33;;;;;;;23.53;49.60;99829.06;5096567;28;20508;-67
2022/05/30 11:49:44;;;;;;;4.75;2.30;;;;;;;23.62;49.32;99793.38;5095704;28;20127;-67
2022/05/30 11:52:31;;;;;;;4.93;1.90;;;;;;;24.03;48.85;99810.56;5096426;28;20094;-67
2022/05/30 11:55:26;;;;;;;2.90;1.67;;;;;;;24.44;48.71;99809.81;5091793;28;20098;-67
2022/05/30 11:58:08;;;;;;;5.90;2.42;;;;;;;24.70;48.13;99801.09;5098528;28;20047;-66
2022/05/30 12:00:47;;;;;;;3.25;1.48;;;;;;;24.83;47.71;99798.75;5076908;28;20075;-67
2022/05/30 12:03:32;;;;;;;3.65;2.17;;;;;;;25.17;47.33;99808.00;5076168;28;20423;-68